createdAt,value
2018-08-03T00:00:09.522Z,6.53
2018-08-03T00:02:40.720Z,8.07
2018-08-03T00:05:11.209Z,6.93
2018-08-03T00:07:42.035Z,6.83
2018-08-03T00:10:14.773Z,8.90
2018-08-03T00:12:46.778Z,6.70
2018-08-03T00:15:16.847Z,6.63
2018-08-03T00:17:46.950Z,6.83
2018-08-03T00:20:17.801Z,6.67
2018-08-03T00:22:50.012Z,6.63
2018-08-03T00:25:22.512Z,12.60
2018-08-03T00:27:52.487Z,8.77
2018-08-03T00:30:22.497Z,9.33
2018-08-03T00:32:52.512Z,6.63
2018-08-03T00:35:22.998Z,6.53
2018-08-03T00:37:53.038Z,6.70
2018-08-03T00:40:23.077Z,7.83
2018-08-03T00:42:53.058Z,6.07
2018-08-03T00:45:23.124Z,6.83
2018-08-03T00:47:53.127Z,8.30
2018-08-03T00:50:24.338Z,6.70
2018-08-03T00:52:54.334Z,6.77
2018-08-03T00:55:24.497Z,8.23
2018-08-03T00:57:54.590Z,6.37
2018-08-03T01:00:24.645Z,6.10
2018-08-03T01:02:54.642Z,7.80
2018-08-03T01:05:25.058Z,6.43
2018-08-03T01:07:56.372Z,6.43
2018-08-03T01:10:27.361Z,6.40
2018-08-03T01:12:57.442Z,8.20
2018-08-03T01:15:27.413Z,6.20
2018-08-03T01:17:57.486Z,7.17
2018-08-03T01:20:27.840Z,7.37
2018-08-03T01:22:57.786Z,6.13
2018-08-03T01:25:27.814Z,7.33
2018-08-03T01:27:57.791Z,6.73
2018-08-03T01:30:27.776Z,8.43
2018-08-03T01:32:57.736Z,5.87
2018-08-03T01:35:58.950Z,6.33
2018-08-03T01:38:28.867Z,8.37
2018-08-03T01:40:58.900Z,7.10
2018-08-03T01:43:28.929Z,6.40
2018-08-03T01:45:58.898Z,6.27
2018-08-03T01:48:28.863Z,7.00
2018-08-03T01:50:59.111Z,8.33
2018-08-03T01:53:29.086Z,8.23
2018-08-03T01:55:59.054Z,9.23
2018-08-03T01:58:29.062Z,6.87
2018-08-03T02:00:58.963Z,7.33
2018-08-03T02:03:29.055Z,6.53
2018-08-03T02:05:59.391Z,6.23
2018-08-03T02:08:29.382Z,8.13
2018-08-03T02:10:59.329Z,6.40
2018-08-03T02:13:29.282Z,10.43
2018-08-03T02:15:59.225Z,7.83
2018-08-03T02:18:29.399Z,8.33
2018-08-03T02:20:59.836Z,6.27
2018-08-03T02:23:30.830Z,6.73
2018-08-03T02:26:00.809Z,7.17
2018-08-03T02:28:30.830Z,6.97
2018-08-03T02:31:00.811Z,6.50
2018-08-03T02:33:30.780Z,7.57
2018-08-03T02:36:01.133Z,6.70
2018-08-03T02:38:31.497Z,7.27
2018-08-03T02:41:01.535Z,6.80
2018-08-03T02:43:32.108Z,7.57
2018-08-03T02:46:02.086Z,6.77
2018-08-03T02:48:32.170Z,7.77
2018-08-03T02:51:02.592Z,7.17
2018-08-03T02:53:32.586Z,7.50
2018-08-03T02:56:02.618Z,7.80
2018-08-03T02:58:32.558Z,8.30
2018-08-03T03:01:02.547Z,7.87
2018-08-03T03:03:33.146Z,7.43
2018-08-03T03:06:04.139Z,6.70
2018-08-03T03:08:35.397Z,6.73
2018-08-03T03:11:05.677Z,7.00
2018-08-03T03:13:35.899Z,7.83
2018-08-03T03:16:06.701Z,8.27
2018-08-03T03:18:36.661Z,7.10
2018-08-03T03:21:07.270Z,7.37
2018-08-03T03:23:37.257Z,7.63
2018-08-03T03:26:07.208Z,7.20
2018-08-03T03:28:38.341Z,8.27
2018-08-03T03:31:09.302Z,8.33
2018-08-03T03:33:39.325Z,6.70
2018-08-03T03:36:11.454Z,7.73
2018-08-03T03:38:41.598Z,7.70
2018-08-03T03:41:11.646Z,7.37
2018-08-03T03:43:41.959Z,9.17
2018-08-03T03:46:11.930Z,10.80
2018-08-03T03:48:42.298Z,7.43
2018-08-03T03:51:13.059Z,11.63
2018-08-03T03:53:43.130Z,11.17
2018-08-03T03:56:13.394Z,7.43
2018-08-03T03:58:43.858Z,8.97
2018-08-03T04:01:14.374Z,9.67
2018-08-03T04:03:44.380Z,7.33
2018-08-03T04:06:14.435Z,7.43
2018-08-03T04:08:44.722Z,8.37
2018-08-03T04:11:15.798Z,7.27
2018-08-03T04:13:47.860Z,7.43
2018-08-03T04:16:17.853Z,7.37
2018-08-03T04:18:47.985Z,7.63
2018-08-03T04:21:19.157Z,6.87
2018-08-03T04:23:50.698Z,6.73
2018-08-03T04:26:20.922Z,8.03
2018-08-03T04:28:55.986Z,8.90
2018-08-03T04:31:26.972Z,8.13
2018-08-03T04:33:59.387Z,6.90
2018-08-03T04:36:29.418Z,7.53
2018-08-03T04:38:59.535Z,7.87
2018-08-03T04:41:29.446Z,7.93
2018-08-03T04:44:03.151Z,8.30
2018-08-03T04:46:33.098Z,9.13
2018-08-03T04:49:03.386Z,8.90
2018-08-03T04:51:33.355Z,7.60
2018-08-03T04:54:04.324Z,7.73
2018-08-03T04:56:34.283Z,8.83
2018-08-03T04:59:04.282Z,9.93
2018-08-03T05:01:34.491Z,8.83
2018-08-03T05:04:05.214Z,7.60
2018-08-03T05:06:37.051Z,8.10
2018-08-03T05:09:07.735Z,7.70
2018-08-03T05:11:37.694Z,8.93
2018-08-03T05:14:07.666Z,9.30
2018-08-03T05:16:37.721Z,11.40
2018-08-03T05:19:08.464Z,12.87
2018-08-03T05:21:39.598Z,8.17
2018-08-03T05:24:09.663Z,8.60
2018-08-03T05:26:39.650Z,9.70
2018-08-03T05:29:10.024Z,10.43
2018-08-03T05:31:40.083Z,11.20
2018-08-03T05:34:10.217Z,16.60
2018-08-03T05:36:41.537Z,10.33
2018-08-03T05:39:12.475Z,11.63
2018-08-03T05:41:42.475Z,15.63
2018-08-03T05:44:12.463Z,10.13
2018-08-03T05:46:43.734Z,9.27
2018-08-03T05:49:14.562Z,11.13
2018-08-03T05:51:45.627Z,11.93
2018-08-03T05:54:17.827Z,11.30
2018-08-03T05:56:48.627Z,9.97
2018-08-03T05:59:18.683Z,11.13
2018-08-03T06:01:48.899Z,10.40
2018-08-03T06:04:19.569Z,11.23
2018-08-03T06:06:50.148Z,10.97
2018-08-03T06:09:20.471Z,12.10
2018-08-03T06:11:50.500Z,10.13
2018-08-03T06:14:20.503Z,10.27
2018-08-03T06:16:50.575Z,10.43
2018-08-03T06:19:21.546Z,11.47
2018-08-03T06:21:53.201Z,10.50
2018-08-03T06:24:24.026Z,9.67
2018-08-03T06:26:55.407Z,9.80
2018-08-03T06:29:25.995Z,13.00
2018-08-03T06:31:57.505Z,11.63
2018-08-03T06:34:28.045Z,12.10
2018-08-03T06:36:59.155Z,11.27
2018-08-03T06:39:30.370Z,11.40
2018-08-03T06:42:00.489Z,11.20
2018-08-03T06:44:31.951Z,10.47
2018-08-03T06:47:01.964Z,11.50
2018-08-03T06:49:31.944Z,15.53
2018-08-03T06:52:04.332Z,9.87
2018-08-03T06:54:34.290Z,9.40
2018-08-03T06:57:04.389Z,9.03
2018-08-03T06:59:34.343Z,10.40
2018-08-03T07:02:04.340Z,8.47
2018-08-03T07:04:34.412Z,10.37
2018-08-03T07:07:04.711Z,11.13
2018-08-03T07:09:34.683Z,13.50
2018-08-03T07:12:04.703Z,14.03
2018-08-03T07:14:36.560Z,9.13
2018-08-03T07:17:06.980Z,9.60
2018-08-03T07:19:38.022Z,11.90
2018-08-03T07:22:08.703Z,9.70
2018-08-03T07:24:38.716Z,11.37
2018-08-03T07:27:08.796Z,10.40
2018-08-03T07:29:40.903Z,9.70
2018-08-03T07:32:11.243Z,10.23
2018-08-03T07:34:41.297Z,11.97
2018-08-03T07:37:16.491Z,13.00
2018-08-03T07:39:46.931Z,13.17
2018-08-03T07:42:17.222Z,10.77
2018-08-03T07:44:50.385Z,10.90
2018-08-03T07:47:22.589Z,9.77
2018-08-03T07:49:54.368Z,12.13
2018-08-03T07:52:27.420Z,9.87
2018-08-03T07:54:58.493Z,10.37
2018-08-03T07:57:30.129Z,10.33
2018-08-03T08:00:02.616Z,11.50
2018-08-03T08:02:35.602Z,9.83
2018-08-03T08:05:08.263Z,16.47
2018-08-03T08:07:40.297Z,11.07
2018-08-03T08:10:11.384Z,13.63
2018-08-03T08:12:42.128Z,10.37
2018-08-03T08:15:12.173Z,15.57
2018-08-03T08:17:43.570Z,11.03
2018-08-03T08:20:14.441Z,12.70
2018-08-03T08:22:47.767Z,13.77
2018-08-03T08:25:19.531Z,18.50
2018-08-03T08:27:50.413Z,12.13
2018-08-03T08:30:21.251Z,12.33
2018-08-03T08:32:56.032Z,11.90
2018-08-03T08:35:41.820Z,12.67
2018-08-03T08:38:23.550Z,11.13
2018-08-03T08:40:54.586Z,14.40
2018-08-03T08:43:25.886Z,17.03
2018-08-03T08:45:57.499Z,11.93
2018-08-03T08:48:31.383Z,13.33
2018-08-03T08:51:01.848Z,11.60
2018-08-03T08:53:34.310Z,11.70
2018-08-03T08:56:04.342Z,15.97
2018-08-03T08:58:40.373Z,14.43
2018-08-03T09:01:16.375Z,13.57
2018-08-03T09:03:48.621Z,14.73
2018-08-03T09:06:23.674Z,12.40
2018-08-03T09:08:54.383Z,13.40
2018-08-03T09:11:28.019Z,14.33
2018-08-03T09:14:03.371Z,12.63
2018-08-03T09:16:34.466Z,14.30
2018-08-03T09:19:04.474Z,15.00
2018-08-03T09:21:36.228Z,12.93
2018-08-03T09:24:07.259Z,16.27
2018-08-03T09:26:38.381Z,12.10
2018-08-03T09:29:11.163Z,13.83
2018-08-03T09:31:41.194Z,15.97
2018-08-03T09:34:13.330Z,12.60
2018-08-03T09:36:45.464Z,12.80
2018-08-03T09:39:17.347Z,14.10
2018-08-03T09:41:49.278Z,13.57
2018-08-03T09:44:19.988Z,15.30
2018-08-03T09:46:50.270Z,15.30
2018-08-03T09:49:21.173Z,14.30
2018-08-03T09:51:54.778Z,11.43
2018-08-03T09:54:26.133Z,15.40
2018-08-03T09:56:56.128Z,15.10
2018-08-03T09:59:26.364Z,13.57
2018-08-03T10:02:03.155Z,16.90
2018-08-03T10:04:35.195Z,12.93
2018-08-03T10:07:06.253Z,14.67
2018-08-03T10:09:37.461Z,10.80
2018-08-03T10:12:09.366Z,17.10
2018-08-03T10:14:41.278Z,13.27
2018-08-03T10:17:11.769Z,12.70
2018-08-03T10:19:46.470Z,11.80
2018-08-03T10:22:20.732Z,15.30
2018-08-03T10:24:52.184Z,12.27
2018-08-03T10:27:23.237Z,18.27
2018-08-03T10:30:07.238Z,13.20
2018-08-03T10:32:39.255Z,13.73
2018-08-03T10:35:09.442Z,12.00
2018-08-03T10:37:42.409Z,16.37
2018-08-03T10:40:14.274Z,12.63
2018-08-03T10:42:48.440Z,10.80
2018-08-03T10:45:21.542Z,12.20
2018-08-03T10:47:55.101Z,15.67
2018-08-03T10:50:27.481Z,11.60
2018-08-03T10:52:58.055Z,11.60
2018-08-03T10:55:31.830Z,13.10
2018-08-03T10:58:03.213Z,12.47
2018-08-03T11:00:33.356Z,10.80
2018-08-03T11:03:05.221Z,11.03
2018-08-03T11:05:35.167Z,14.70
2018-08-03T11:08:05.945Z,13.77
2018-08-03T11:10:35.947Z,14.57
2018-08-03T11:13:09.254Z,13.33
2018-08-03T11:15:40.495Z,11.50
2018-08-03T11:18:11.270Z,12.17
2018-08-03T11:20:42.166Z,14.97
2018-08-03T11:23:16.089Z,12.90
2018-08-03T11:25:47.398Z,14.10
2018-08-03T11:28:21.236Z,10.37
2018-08-03T11:30:51.829Z,10.93
2018-08-03T11:33:22.496Z,10.73
2018-08-03T11:35:55.192Z,13.40
2018-08-03T11:38:27.463Z,18.33
2018-08-03T11:40:59.390Z,12.23
2018-08-03T11:43:34.531Z,12.20
2018-08-03T11:46:07.621Z,12.93
2018-08-03T11:48:40.572Z,14.47
2018-08-03T11:51:12.188Z,13.13
2018-08-03T11:53:55.298Z,14.10
2018-08-03T11:56:34.631Z,13.97
2018-08-03T11:59:12.941Z,16.10
2018-08-03T12:01:47.467Z,12.43
2018-08-03T12:04:20.123Z,11.17
2018-08-03T12:06:55.204Z,12.13
2018-08-03T12:09:30.955Z,13.00
2018-08-03T12:12:06.913Z,12.20
2018-08-03T12:14:41.533Z,19.60
2018-08-03T12:17:17.024Z,10.83
2018-08-03T12:19:50.829Z,12.30
2018-08-03T12:22:21.960Z,12.50
2018-08-03T12:24:55.574Z,13.53
2018-08-03T12:27:26.476Z,9.80
2018-08-03T12:29:58.509Z,10.60
2018-08-03T12:32:29.505Z,10.53
2018-08-03T12:35:00.297Z,8.13
2018-08-03T12:37:31.412Z,8.47
2018-08-03T12:40:04.377Z,10.73
2018-08-03T12:42:37.336Z,9.50
2018-08-03T12:45:15.690Z,9.07
2018-08-03T12:47:47.839Z,10.40
2018-08-03T12:50:20.264Z,10.00
2018-08-03T12:52:54.083Z,9.10
2018-08-03T12:55:25.833Z,9.80
2018-08-03T12:57:58.253Z,11.37
2018-08-03T13:00:32.503Z,11.07
2018-08-03T13:03:02.477Z,13.17
2018-08-03T13:05:32.440Z,8.77
2018-08-03T13:08:04.021Z,8.80
2018-08-03T13:10:34.016Z,8.97
2018-08-03T13:13:10.058Z,8.93
2018-08-03T13:15:41.322Z,8.97
2018-08-03T13:18:13.813Z,9.60
2018-08-03T13:20:43.782Z,10.80
2018-08-03T13:23:14.021Z,13.17
2018-08-03T13:25:45.259Z,11.33
2018-08-03T13:28:15.287Z,16.13
2018-08-03T13:30:46.800Z,12.53
2018-08-03T13:33:22.665Z,10.07
2018-08-03T13:35:55.292Z,9.70
2018-08-03T13:38:26.802Z,9.20
2018-08-03T13:40:57.295Z,10.53
2018-08-03T13:43:27.886Z,10.80
2018-08-03T13:45:57.857Z,8.77
2018-08-03T13:48:28.493Z,12.83
2018-08-03T13:50:58.459Z,10.93
2018-08-03T13:53:30.414Z,10.00
2018-08-03T13:56:00.964Z,9.40
2018-08-03T13:58:32.203Z,9.70
2018-08-03T14:01:15.095Z,9.10
2018-08-03T14:03:45.366Z,10.80
2018-08-03T14:06:16.699Z,9.80
2018-08-03T14:08:49.993Z,9.03
2018-08-03T14:11:22.389Z,10.47
2018-08-03T14:13:53.331Z,8.97
2018-08-03T14:16:23.279Z,8.53
2018-08-03T14:18:54.418Z,9.93
2018-08-03T14:21:28.235Z,9.10
2018-08-03T14:23:59.680Z,8.93
2018-08-03T14:26:29.701Z,11.33
2018-08-03T14:29:02.158Z,9.70
2018-08-03T14:31:32.995Z,8.97
2018-08-03T14:34:04.150Z,8.57
2018-08-03T14:36:35.544Z,9.13
2018-08-03T14:39:09.188Z,8.87
2018-08-03T14:41:49.090Z,10.17
2018-08-03T14:44:21.793Z,9.93
2018-08-03T14:46:54.458Z,8.50
2018-08-03T14:49:30.825Z,9.87
2018-08-03T14:52:22.794Z,8.40
2018-08-03T14:54:53.664Z,8.97
2018-08-03T14:57:24.164Z,8.47
2018-08-03T14:59:57.512Z,8.43
2018-08-03T15:02:32.130Z,9.73
2018-08-03T15:05:02.662Z,9.60
2018-08-03T15:07:32.739Z,8.67
2018-08-03T15:10:03.346Z,10.40
2018-08-03T15:12:34.006Z,9.50
2018-08-03T15:15:04.418Z,9.63
2018-08-03T15:17:35.919Z,10.07
2018-08-03T15:20:08.434Z,9.43
2018-08-03T15:22:38.982Z,9.40
2018-08-03T15:25:13.204Z,9.53
2018-08-03T15:27:45.814Z,8.73
2018-08-03T15:30:15.820Z,8.63
2018-08-03T15:32:48.743Z,10.13
2018-08-03T15:35:21.681Z,9.50
2018-08-03T15:37:54.031Z,12.13
2018-08-03T15:40:26.086Z,13.17
2018-08-03T15:42:57.663Z,9.67
2018-08-03T15:48:18.105Z,9.53
2018-08-03T15:50:49.478Z,9.67
2018-08-03T15:53:20.136Z,8.93
2018-08-03T15:55:51.434Z,8.63
2018-08-03T15:58:21.681Z,9.27
2018-08-03T16:00:58.410Z,10.23
2018-08-03T16:03:31.706Z,12.10
2018-08-03T16:06:03.926Z,9.07
2018-08-03T16:08:36.096Z,9.40
2018-08-03T16:11:07.449Z,8.73
2018-08-03T16:13:39.428Z,10.90
2018-08-03T16:16:09.466Z,9.70
2018-08-03T16:18:41.251Z,9.30
2018-08-03T16:21:13.170Z,11.27
2018-08-03T16:23:43.223Z,10.43
2018-08-03T16:26:15.483Z,11.03
2018-08-03T16:28:45.500Z,9.97
2018-08-03T16:31:15.459Z,12.23
2018-08-03T16:33:45.787Z,10.60
2018-08-03T16:36:15.808Z,12.77
2018-08-03T16:38:47.182Z,10.50
2018-08-03T16:41:17.442Z,10.17
2018-08-03T16:43:48.687Z,12.13
2018-08-03T16:46:20.055Z,9.73
2018-08-03T16:48:51.241Z,10.53
2018-08-03T16:51:21.240Z,11.50
2018-08-03T16:53:51.384Z,10.67
2018-08-03T16:56:21.327Z,10.37
2018-08-03T16:58:51.757Z,11.60
2018-08-03T17:01:21.697Z,15.97
2018-08-03T17:03:52.343Z,11.30
2018-08-03T17:06:25.745Z,13.30
2018-08-03T17:08:57.196Z,12.83
2018-08-03T17:11:27.142Z,12.47
2018-08-03T17:14:00.041Z,12.33
2018-08-03T17:16:31.797Z,11.87
2018-08-03T17:19:05.749Z,15.60
2018-08-03T17:21:35.699Z,13.00
2018-08-03T17:24:12.041Z,10.33
2018-08-03T17:26:46.226Z,10.70
2018-08-03T17:29:16.953Z,9.97
2018-08-03T17:31:46.910Z,12.87
2018-08-03T17:34:17.450Z,10.77
2018-08-03T17:36:56.200Z,10.63
2018-08-03T17:39:26.940Z,11.30
2018-08-03T17:42:00.072Z,11.33
2018-08-03T17:44:30.958Z,12.63
2018-08-03T17:47:01.346Z,10.37
2018-08-03T17:49:41.890Z,11.60
2018-08-03T17:52:12.477Z,10.50
2018-08-03T17:54:43.330Z,11.73
2018-08-03T17:57:13.301Z,12.93
2018-08-03T17:59:44.289Z,14.27
2018-08-03T18:02:16.955Z,13.87
2018-08-03T18:04:48.691Z,11.43
2018-08-03T18:07:23.697Z,12.40
2018-08-03T18:10:00.102Z,10.83
2018-08-03T18:12:33.222Z,11.27
2018-08-03T18:15:03.228Z,13.47
2018-08-03T18:17:34.038Z,14.77
2018-08-03T18:20:09.614Z,10.03
2018-08-03T18:22:45.043Z,10.50
2018-08-03T18:25:16.566Z,10.40
2018-08-03T18:27:47.997Z,11.03
2018-08-03T18:30:32.578Z,11.47
2018-08-03T18:33:04.347Z,10.67
2018-08-03T18:35:40.266Z,11.13
2018-08-03T18:38:13.617Z,10.10
2018-08-03T18:40:43.546Z,10.53
2018-08-03T18:43:14.266Z,13.07
2018-08-03T18:45:45.496Z,12.17
2018-08-03T18:48:18.205Z,15.40
2018-08-03T18:50:50.370Z,11.20
2018-08-03T18:53:29.725Z,11.40
2018-08-03T18:56:04.137Z,13.37
2018-08-03T18:58:39.381Z,13.53
2018-08-03T19:01:11.218Z,11.27
2018-08-03T19:03:44.690Z,11.43
2018-08-03T19:06:17.544Z,11.60
2018-08-03T19:08:48.466Z,11.47
2018-08-03T19:11:18.742Z,11.70
2018-08-03T19:13:49.382Z,11.93
2018-08-03T19:16:20.169Z,11.63
2018-08-03T19:18:51.268Z,11.97
2018-08-03T19:21:23.833Z,11.63
2018-08-03T19:23:55.828Z,11.00
2018-08-03T19:26:30.318Z,12.23
2018-08-03T19:29:12.434Z,11.87
2018-08-03T19:31:44.178Z,12.47
2018-08-03T19:34:19.217Z,13.23
2018-08-03T19:36:50.189Z,11.83
2018-08-03T19:39:21.751Z,13.53
2018-08-03T19:41:53.081Z,12.60
2018-08-03T19:44:25.244Z,11.77
2018-08-03T19:46:59.182Z,12.80
2018-08-03T19:49:30.549Z,11.87
2018-08-03T19:52:00.774Z,12.53
2018-08-03T19:54:32.448Z,13.20
2018-08-03T19:57:07.519Z,12.57
2018-08-03T19:59:39.563Z,11.83
2018-08-03T20:02:12.777Z,12.73
2018-08-03T20:04:43.655Z,13.13
2018-08-03T20:07:14.297Z,12.87
2018-08-03T20:09:46.495Z,11.77
2018-08-03T20:12:33.656Z,14.30
2018-08-03T20:15:03.822Z,11.97
2018-08-03T20:17:35.057Z,13.87
2018-08-03T20:20:06.435Z,14.00
2018-08-03T20:22:37.613Z,13.17
2018-08-03T20:25:12.818Z,13.23
2018-08-03T20:27:45.831Z,13.07
2018-08-03T20:30:17.778Z,15.67
2018-08-03T20:32:49.811Z,13.17
2018-08-03T20:35:19.965Z,14.27
2018-08-03T20:37:53.728Z,12.10
2018-08-03T20:40:28.273Z,15.33
2018-08-03T20:43:06.396Z,13.47
2018-08-03T20:45:37.704Z,13.37
2018-08-03T20:48:10.414Z,13.23
2018-08-03T20:50:42.050Z,14.57
2018-08-03T20:53:18.715Z,14.37
2018-08-03T20:55:53.583Z,16.13
2018-08-03T20:58:25.567Z,14.50
2018-08-03T21:00:56.209Z,14.47
2018-08-03T21:03:31.974Z,16.40
2018-08-03T21:06:05.378Z,14.83
2018-08-03T21:08:36.045Z,15.30
2018-08-03T21:11:09.101Z,15.07
2018-08-03T21:13:40.741Z,15.20
2018-08-03T21:16:14.313Z,14.43
2018-08-03T21:18:47.882Z,19.13
2018-08-03T21:21:19.221Z,14.53
2018-08-03T21:23:52.578Z,15.27
2018-08-03T21:26:23.190Z,14.23
2018-08-03T21:28:53.069Z,14.73
2018-08-03T21:31:24.239Z,14.97
2018-08-03T21:33:54.510Z,14.77
2018-08-03T21:36:26.264Z,13.83
2018-08-03T21:38:58.714Z,15.30
2018-08-03T21:41:30.089Z,15.87
2018-08-03T21:44:00.113Z,15.37
2018-08-03T21:46:30.550Z,16.37
2018-08-03T21:49:01.858Z,14.87
2018-08-03T21:51:32.210Z,14.33
2018-08-03T21:54:02.851Z,14.70
2018-08-03T21:56:35.769Z,16.90
2018-08-03T21:59:09.270Z,14.13
2018-08-03T22:01:41.314Z,14.07
2018-08-03T22:04:11.381Z,18.83
2018-08-03T22:06:41.601Z,15.87
2018-08-03T22:09:12.253Z,14.53
2018-08-03T22:11:43.677Z,14.57
2018-08-03T22:14:14.224Z,15.93
2018-08-03T22:16:44.120Z,15.43
2018-08-03T22:19:15.788Z,14.83
2018-08-03T22:21:46.642Z,14.70
2018-08-03T22:24:17.339Z,14.40
2018-08-03T22:26:49.288Z,13.73
2018-08-03T22:29:21.484Z,14.97
2018-08-03T22:31:52.431Z,15.17
2018-08-03T22:34:22.350Z,14.37
2018-08-03T22:36:56.724Z,14.07
2018-08-03T22:39:29.844Z,14.20
2018-08-03T22:42:01.561Z,16.07
2018-08-03T22:47:19.185Z,15.13
2018-08-03T22:49:50.057Z,15.00
2018-08-03T22:52:22.323Z,14.63
2018-08-03T22:54:52.251Z,14.17
2018-08-03T22:57:24.460Z,14.43
2018-08-03T22:59:58.817Z,14.00
2018-08-03T23:02:31.454Z,14.73
2018-08-03T23:05:18.418Z,14.23
2018-08-03T23:07:52.885Z,14.50
2018-08-03T23:10:24.576Z,14.33
2018-08-03T23:12:55.998Z,15.43
2018-08-03T23:15:29.272Z,13.87
2018-08-03T23:18:00.272Z,13.80
2018-08-03T23:20:31.375Z,14.30
2018-08-03T23:23:03.974Z,15.07
2018-08-03T23:25:34.226Z,14.73
2018-08-03T23:28:05.233Z,15.40
2018-08-03T23:30:35.969Z,14.13
2018-08-03T23:33:06.121Z,13.83
2018-08-03T23:35:36.708Z,14.13
2018-08-03T23:38:09.290Z,14.63
2018-08-03T23:40:42.026Z,14.23
2018-08-03T23:43:13.545Z,13.53
2018-08-03T23:45:43.760Z,13.93
2018-08-03T23:48:13.827Z,13.67
2018-08-03T23:50:45.070Z,12.97
2018-08-03T23:53:15.094Z,12.93
2018-08-03T23:55:45.986Z,14.47
2018-08-03T23:58:16.441Z,13.23
